createdAt,value
2022-10-29T00:02:06.067Z,101092.66
2022-10-29T00:04:32.635Z,101093.34
2022-10-29T00:06:59.568Z,101094.75
2022-10-29T00:09:26.089Z,101100.25
2022-10-29T00:11:52.705Z,101107.16
2022-10-29T00:14:19.242Z,101104.38
2022-10-29T00:16:45.768Z,101105.63
2022-10-29T00:19:12.286Z,101102.47
2022-10-29T00:21:40.376Z,101109.78
2022-10-29T00:24:09.561Z,101109.44
2022-10-29T00:26:36.155Z,101120.38
2022-10-29T00:29:02.778Z,101122.03
2022-10-29T00:31:29.452Z,101118.72
2022-10-29T00:33:56.048Z,101114.94
2022-10-29T00:36:26.723Z,101111.75
2022-10-29T00:38:53.897Z,101118.28
2022-10-29T00:46:18.235Z,101124.78
2022-10-29T00:48:50.673Z,101126.66
2022-10-29T00:51:17.872Z,101130.44
2022-10-29T00:53:54.337Z,101126.66
2022-10-29T00:56:22.503Z,101124.97
2022-10-29T00:58:49.232Z,101127.91
2022-10-29T01:01:15.915Z,101133.81
2022-10-29T01:03:43.156Z,101136.31
2022-10-29T01:06:09.953Z,101129.59
2022-10-29T01:08:36.547Z,101132.53
2022-10-29T01:11:11.233Z,101139.66
2022-10-29T01:13:50.166Z,101137.75
2022-10-29T01:16:31.925Z,101144.50
2022-10-29T01:19:08.449Z,101148.44
2022-10-29T01:21:39.742Z,101147.59
2022-10-29T01:24:29.166Z,101134.63
2022-10-29T01:27:21.774Z,101130.81
2022-10-29T01:30:11.098Z,101139.25
2022-10-29T01:32:46.286Z,101135.25
2022-10-29T01:35:30.262Z,101134.00
2022-10-29T01:38:21.978Z,101138.00
2022-10-29T01:41:07.356Z,101132.75
2022-10-29T01:43:40.734Z,101143.38
2022-10-29T01:46:16.569Z,101142.59
2022-10-29T01:48:46.993Z,101147.19
2022-10-29T01:51:30.474Z,101150.97
2022-10-29T01:53:59.853Z,101151.38
2022-10-29T01:56:26.403Z,101159.09
2022-10-29T01:58:57.130Z,101150.75
2022-10-29T02:01:35.680Z,101147.63
2022-10-29T02:04:32.210Z,101158.94
2022-10-29T02:07:17.534Z,101162.47
2022-10-29T02:10:19.922Z,101161.19
2022-10-29T02:12:48.761Z,101165.81
2022-10-29T02:15:20.725Z,101160.81
2022-10-29T02:17:47.680Z,101165.63
2022-10-29T02:20:15.507Z,101143.66
2022-10-29T02:22:42.183Z,101135.88
2022-10-29T02:25:09.969Z,101134.81
2022-10-29T02:27:36.853Z,101131.03
2022-10-29T02:30:04.414Z,101126.56
2022-10-29T02:32:32.507Z,101127.81
2022-10-29T02:35:00.972Z,101130.63
2022-10-29T02:37:28.895Z,101115.47
2022-10-29T02:39:55.433Z,101104.16
2022-10-29T02:42:22.194Z,101103.09
2022-10-29T02:44:49.592Z,101110.66
2022-10-29T02:47:16.339Z,101127.06
2022-10-29T02:49:43.253Z,101123.91
2022-10-29T02:52:09.916Z,101119.09
2022-10-29T02:54:36.448Z,101111.09
2022-10-29T02:57:03.533Z,101125.63
2022-10-29T02:59:30.060Z,101118.25
2022-10-29T03:01:56.733Z,101134.22
2022-10-29T03:04:23.402Z,101122.50
2022-10-29T03:06:50.009Z,101121.84
2022-10-29T03:09:16.569Z,101109.88
2022-10-29T03:11:43.111Z,101106.97
2022-10-29T03:14:09.645Z,101108.22
2022-10-29T03:16:36.598Z,101101.50
2022-10-29T03:19:03.588Z,101100.25
2022-10-29T03:21:30.109Z,101101.50
2022-10-29T03:23:56.734Z,101107.78
2022-10-29T03:26:23.284Z,101102.78
2022-10-29T03:28:49.859Z,101104.47
2022-10-29T03:31:16.492Z,101110.50
2022-10-29T03:33:43.036Z,101110.31
2022-10-29T03:36:09.820Z,101115.53
2022-10-29T03:38:36.501Z,101111.34
2022-10-29T03:41:08.470Z,101110.13
2022-10-29T03:43:37.021Z,101091.47
2022-10-29T03:46:04.067Z,101090.22
2022-10-29T03:48:30.646Z,101087.06
2022-10-29T03:51:01.557Z,101077.63
2022-10-29T03:53:29.449Z,101078.88
2022-10-29T03:55:57.171Z,101089.34
2022-10-29T03:58:24.846Z,101087.47
2022-10-29T04:01:02.541Z,101100.25
2022-10-29T04:03:31.118Z,101107.38
2022-10-29T04:05:59.348Z,101096.88
2022-10-29T04:08:26.088Z,101093.13
2022-10-29T04:10:53.180Z,101101.94
2022-10-29T04:13:20.710Z,101101.09
2022-10-29T04:15:47.504Z,101109.25
2022-10-29T04:18:14.814Z,101114.91
2022-10-29T04:20:57.043Z,101109.91
2022-10-29T04:29:02.883Z,101110.88
2022-10-29T04:31:29.423Z,101116.09
2022-10-29T04:33:55.958Z,101113.13
2022-10-29T04:36:22.536Z,101118.81
2022-10-29T04:38:50.204Z,101125.88
2022-10-29T04:41:16.815Z,101123.94
2022-10-29T04:43:43.786Z,101127.06
2022-10-29T04:46:11.314Z,101112.81
2022-10-29T04:48:38.210Z,101107.75
2022-10-29T04:51:05.222Z,101107.31
2022-10-29T04:53:32.336Z,101118.13
2022-10-29T04:56:01.303Z,101119.84
2022-10-29T04:58:28.174Z,101118.06
2022-10-29T05:01:00.360Z,101123.22
2022-10-29T05:03:26.988Z,101129.72
2022-10-29T05:05:53.818Z,101124.38
2022-10-29T05:08:21.477Z,101104.44
2022-10-29T05:10:48.155Z,101092.28
2022-10-29T05:13:14.773Z,101094.56
2022-10-29T05:15:42.066Z,101083.38
2022-10-29T05:18:10.113Z,101094.25
2022-10-29T05:20:36.659Z,101083.97
2022-10-29T05:23:08.225Z,101091.78
2022-10-29T05:25:37.602Z,101093.81
2022-10-29T05:28:06.419Z,101092.09
2022-10-29T05:30:34.262Z,101101.56
2022-10-29T05:33:00.819Z,101109.75
2022-10-29T05:35:27.798Z,101105.13
2022-10-29T05:37:55.639Z,101116.81
2022-10-29T05:40:24.127Z,101113.44
2022-10-29T05:42:50.769Z,101109.72
2022-10-29T05:45:17.856Z,101105.44
2022-10-29T05:47:44.627Z,101116.84
2022-10-29T05:50:12.614Z,101126.53
2022-10-29T05:52:40.043Z,101127.22
2022-10-29T05:55:06.993Z,101130.41
2022-10-29T05:57:33.520Z,101131.31
2022-10-29T06:00:00.039Z,101132.16
2022-10-29T06:02:26.688Z,101131.50
2022-10-29T06:04:53.328Z,101133.56
2022-10-29T06:07:19.936Z,101135.03
2022-10-29T06:09:46.505Z,101140.88
2022-10-29T06:12:13.018Z,101139.47
2022-10-29T06:14:39.584Z,101130.28
2022-10-29T06:17:06.113Z,101132.09
2022-10-29T06:19:32.913Z,101144.81
2022-10-29T06:22:00.648Z,101142.47
2022-10-29T06:24:27.982Z,101148.72
2022-10-29T06:26:54.779Z,101150.34
2022-10-29T06:29:21.344Z,101136.38
2022-10-29T06:31:47.892Z,101144.28
2022-10-29T06:34:14.814Z,101144.66
2022-10-29T06:36:41.574Z,101142.06
2022-10-29T06:39:08.197Z,101149.94
2022-10-29T06:41:34.756Z,101147.84
2022-10-29T06:44:01.621Z,101144.19
2022-10-29T06:46:28.249Z,101150.69
2022-10-29T06:48:54.919Z,101153.69
2022-10-29T06:53:54.743Z,101137.25
2022-10-29T06:56:22.066Z,101133.53
2022-10-29T06:58:49.583Z,101140.41
2022-10-29T07:01:16.208Z,101131.00
2022-10-29T07:03:42.804Z,101129.19
2022-10-29T07:06:09.337Z,101129.13
2022-10-29T07:08:35.890Z,101125.66
2022-10-29T07:11:02.924Z,101130.59
2022-10-29T07:13:29.644Z,101132.09
2022-10-29T07:15:56.194Z,101124.72
2022-10-29T07:18:22.801Z,101132.00
2022-10-29T07:20:49.704Z,101137.44
2022-10-29T07:23:16.347Z,101146.72
2022-10-29T07:25:44.149Z,101147.38
2022-10-29T07:28:12.541Z,101153.03
2022-10-29T07:30:40.077Z,101148.81
2022-10-29T07:33:06.718Z,101148.78
2022-10-29T07:35:34.694Z,101154.22
2022-10-29T07:38:07.303Z,101164.84
2022-10-29T07:40:40.967Z,101167.28
2022-10-29T07:43:09.044Z,101166.91
2022-10-29T07:45:35.578Z,101159.34
2022-10-29T07:48:04.796Z,101160.41
2022-10-29T07:50:32.038Z,101163.91
2022-10-29T07:53:00.279Z,101163.31
2022-10-29T07:58:02.842Z,101160.91
2022-10-29T08:00:30.505Z,101172.91
2022-10-29T08:02:58.011Z,101177.66
2022-10-29T08:05:26.261Z,101176.00
2022-10-29T08:07:54.909Z,101161.66
2022-10-29T08:10:23.263Z,101163.94
2022-10-29T08:12:51.333Z,101156.31
2022-10-29T08:15:19.696Z,101154.34
2022-10-29T08:17:46.670Z,101151.13
2022-10-29T08:20:14.494Z,101147.84
2022-10-29T08:22:41.324Z,101151.44
2022-10-29T08:25:08.433Z,101158.78
2022-10-29T08:27:35.043Z,101165.88
2022-10-29T08:30:01.720Z,101168.72
2022-10-29T08:32:28.257Z,101175.63
2022-10-29T08:34:56.105Z,101190.38
2022-10-29T08:37:22.821Z,101196.66
2022-10-29T08:39:49.405Z,101186.38
2022-10-29T08:42:31.014Z,101186.41
2022-10-29T08:45:18.998Z,101198.59
2022-10-29T08:48:21.901Z,101180.84
2022-10-29T08:50:57.035Z,101186.34
2022-10-29T08:53:33.989Z,101181.13
2022-10-29T08:56:00.720Z,101175.34
2022-10-29T08:58:30.186Z,101184.22
2022-10-29T09:00:58.555Z,101195.06
2022-10-29T09:03:29.883Z,101196.25
2022-10-29T09:06:07.101Z,101194.41
2022-10-29T09:08:54.913Z,101192.47
2022-10-29T09:11:32.889Z,101192.81
2022-10-29T09:14:36.335Z,101194.41
2022-10-29T09:17:39.598Z,101189.84
2022-10-29T09:20:23.087Z,101188.00
2022-10-29T09:23:02.242Z,101189.56
2022-10-29T09:25:33.069Z,101193.28
2022-10-29T09:28:05.412Z,101195.41
2022-10-29T09:30:50.960Z,101184.88
2022-10-29T09:33:22.793Z,101175.28
2022-10-29T09:35:54.597Z,101170.94
2022-10-29T09:38:29.318Z,101169.78
2022-10-29T09:41:02.303Z,101170.03
2022-10-29T09:43:54.526Z,101165.06
2022-10-29T09:46:40.377Z,101156.97
2022-10-29T09:49:25.870Z,101156.53
2022-10-29T09:51:58.430Z,101147.59
2022-10-29T09:54:27.118Z,101144.19
2022-10-29T09:56:56.167Z,101149.44
2022-10-29T10:00:00.462Z,101137.97
2022-10-29T10:02:33.350Z,101131.47
2022-10-29T10:05:24.938Z,101130.31
2022-10-29T10:08:10.141Z,101127.66
2022-10-29T10:10:50.678Z,101126.25
2022-10-29T10:13:19.737Z,101130.50
2022-10-29T10:15:56.453Z,101133.97
2022-10-29T10:18:38.290Z,101130.34
2022-10-29T10:21:09.427Z,101127.41
2022-10-29T10:23:41.059Z,101134.38
2022-10-29T10:26:32.879Z,101118.13
2022-10-29T10:29:11.912Z,101115.00
2022-10-29T10:31:43.316Z,101106.53
2022-10-29T10:34:23.199Z,101105.97
2022-10-29T10:36:55.595Z,101105.50
2022-10-29T10:39:38.759Z,101102.31
2022-10-29T10:42:15.893Z,101100.09
2022-10-29T10:44:52.157Z,101098.16
2022-10-29T10:47:22.068Z,101105.63
2022-10-29T10:49:49.189Z,101103.44
2022-10-29T10:52:21.531Z,101093.69
2022-10-29T10:54:59.643Z,101097.84
2022-10-29T10:57:32.395Z,101101.91
2022-10-29T11:00:04.709Z,101103.09
2022-10-29T11:02:50.916Z,101098.41
2022-10-29T11:05:29.361Z,101089.59
2022-10-29T11:08:06.898Z,101084.06
2022-10-29T11:10:43.872Z,101081.56
2022-10-29T11:13:16.223Z,101077.34
2022-10-29T11:16:01.623Z,101066.00
2022-10-29T11:18:39.929Z,101078.16
2022-10-29T11:21:14.973Z,101072.13
2022-10-29T11:24:02.264Z,101063.38
2022-10-29T11:26:35.573Z,101054.78
2022-10-29T11:29:12.733Z,101040.63
2022-10-29T11:32:01.977Z,101039.34
2022-10-29T11:34:44.325Z,101040.06
2022-10-29T11:37:10.874Z,101038.19
2022-10-29T11:39:49.260Z,101041.72
2022-10-29T11:42:15.968Z,101040.69
2022-10-29T11:44:42.643Z,101031.13
2022-10-29T11:47:28.301Z,101037.28
2022-10-29T11:50:16.853Z,101033.34
2022-10-29T11:53:03.711Z,101029.19
2022-10-29T11:56:03.671Z,101023.59
2022-10-29T11:58:40.990Z,101032.69
2022-10-29T12:01:51.633Z,101032.97
2022-10-29T12:04:53.871Z,101024.97
2022-10-29T12:07:39.015Z,101018.16
2022-10-29T12:10:19.282Z,101023.06
2022-10-29T12:13:12.295Z,101008.19
2022-10-29T12:15:51.145Z,101000.44
2022-10-29T12:18:41.499Z,100999.53
2022-10-29T12:21:23.182Z,100993.47
2022-10-29T12:24:07.204Z,101000.69
2022-10-29T12:26:42.590Z,101004.72
2022-10-29T12:30:05.304Z,100997.47
2022-10-29T12:32:38.856Z,100996.28
2022-10-29T12:35:46.041Z,100985.63
2022-10-29T12:38:34.683Z,100982.84
2022-10-29T12:41:19.193Z,100976.63
2022-10-29T12:43:46.416Z,100966.91
2022-10-29T12:46:34.724Z,100976.91
2022-10-29T12:49:31.469Z,100973.78
2022-10-29T12:52:07.560Z,100982.38
2022-10-29T12:54:41.958Z,100976.09
2022-10-29T12:57:14.713Z,100982.13
2022-10-29T12:59:43.255Z,100968.53
2022-10-29T13:02:21.808Z,100987.91
2022-10-29T13:05:09.813Z,100966.25
2022-10-29T13:07:45.718Z,100965.25
2022-10-29T13:10:29.556Z,100981.16
2022-10-29T13:13:15.379Z,100959.72
2022-10-29T13:15:59.482Z,100948.44
2022-10-29T13:18:44.445Z,100956.44
2022-10-29T13:21:11.148Z,100975.13
2022-10-29T13:23:37.914Z,100954.28
2022-10-29T13:26:06.394Z,100958.91
2022-10-29T13:28:35.604Z,100952.88
2022-10-29T13:31:08.138Z,100961.22
2022-10-29T13:33:37.474Z,100969.31
2022-10-29T13:36:18.980Z,100978.88
2022-10-29T13:39:05.798Z,100977.16
2022-10-29T13:41:53.973Z,100979.44
2022-10-29T13:44:24.110Z,100975.03
2022-10-29T13:47:16.888Z,100973.97
2022-10-29T13:49:46.298Z,100971.97
2022-10-29T13:52:19.254Z,100970.72
2022-10-29T13:55:00.320Z,100966.31
2022-10-29T13:57:48.228Z,100962.72
2022-10-29T14:00:21.115Z,100962.47
2022-10-29T14:03:15.025Z,100962.16
2022-10-29T14:05:56.805Z,100952.50
2022-10-29T14:08:34.643Z,100941.09
2022-10-29T14:11:07.604Z,100948.91
2022-10-29T14:13:52.953Z,100946.41
2022-10-29T14:16:29.377Z,100958.94
2022-10-29T14:18:56.174Z,100944.69
2022-10-29T14:21:30.966Z,100935.31
2022-10-29T14:24:05.352Z,100931.00
2022-10-29T14:26:34.374Z,100929.19
2022-10-29T14:29:22.074Z,100932.34
2022-10-29T14:32:07.588Z,100926.53
2022-10-29T14:34:34.252Z,100931.25
2022-10-29T14:37:32.935Z,100921.19
2022-10-29T14:40:04.006Z,100924.78
2022-10-29T14:42:34.329Z,100934.78
2022-10-29T14:45:04.800Z,100929.63
2022-10-29T14:47:37.014Z,100925.50
2022-10-29T14:50:14.752Z,100917.38
2022-10-29T14:52:48.559Z,100917.69
2022-10-29T14:55:26.305Z,100924.47
2022-10-29T14:58:07.756Z,100926.84
2022-10-29T15:00:38.565Z,100918.50
2022-10-29T15:03:08.510Z,100914.75
2022-10-29T15:05:37.173Z,100920.28
2022-10-29T15:08:04.616Z,100910.31
2022-10-29T15:10:31.641Z,100909.22
2022-10-29T15:12:58.504Z,100895.31
2022-10-29T15:15:28.935Z,100905.19
2022-10-29T15:18:01.477Z,100898.69
2022-10-29T15:20:39.994Z,100902.88
2022-10-29T15:23:19.409Z,100902.91
2022-10-29T15:25:49.248Z,100895.38
2022-10-29T15:28:24.877Z,100896.41
2022-10-29T15:30:51.664Z,100894.47
2022-10-29T15:33:22.910Z,100906.03
2022-10-29T15:35:53.898Z,100909.19
2022-10-29T15:38:51.995Z,100903.69
2022-10-29T15:41:19.505Z,100901.47
2022-10-29T15:43:56.997Z,100910.91
2022-10-29T15:46:29.356Z,100898.59
2022-10-29T15:48:56.086Z,100898.31
2022-10-29T15:51:27.903Z,100897.81
2022-10-29T15:53:56.367Z,100912.16
2022-10-29T15:56:24.291Z,100901.00
2022-10-29T15:58:52.375Z,100903.00
2022-10-29T16:01:19.051Z,100904.06
2022-10-29T16:03:45.974Z,100895.47
2022-10-29T16:06:12.825Z,100899.59
2022-10-29T16:08:51.293Z,100893.41
2022-10-29T16:11:22.486Z,100886.91
2022-10-29T16:13:54.498Z,100881.94
2022-10-29T16:16:24.257Z,100881.06
2022-10-29T16:18:52.552Z,100871.16
2022-10-29T16:21:22.662Z,100874.13
2022-10-29T16:23:50.391Z,100873.59
2022-10-29T16:26:20.106Z,100877.84
2022-10-29T16:28:47.225Z,100875.09
2022-10-29T16:31:29.685Z,100870.09
2022-10-29T16:34:03.296Z,100857.63
2022-10-29T16:36:30.199Z,100857.38
2022-10-29T16:38:56.851Z,100865.81
2022-10-29T16:41:23.509Z,100862.50
2022-10-29T16:43:50.325Z,100863.66
2022-10-29T16:46:17.132Z,100856.47
2022-10-29T16:48:44.295Z,100854.47
2022-10-29T16:51:10.818Z,100859.84
2022-10-29T16:53:37.760Z,100853.28
2022-10-29T16:56:04.751Z,100856.72
2022-10-29T16:58:31.346Z,100854.16
2022-10-29T17:01:05.474Z,100855.47
2022-10-29T17:03:33.494Z,100855.13
2022-10-29T17:06:10.674Z,100864.53
2022-10-29T17:08:37.930Z,100866.53
2022-10-29T17:11:06.312Z,100871.19
2022-10-29T17:13:33.822Z,100874.63
2022-10-29T17:16:00.345Z,100868.31
2022-10-29T17:18:26.953Z,100878.31
2022-10-29T17:20:58.524Z,100884.91
2022-10-29T17:23:25.582Z,100882.78
2022-10-29T17:25:53.962Z,100880.13
2022-10-29T17:28:21.971Z,100875.41
2022-10-29T17:30:48.732Z,100878.63
2022-10-29T17:33:16.446Z,100876.41
2022-10-29T17:35:44.163Z,100878.34
2022-10-29T17:38:11.647Z,100881.97
2022-10-29T17:40:38.785Z,100875.16
2022-10-29T17:43:05.977Z,100874.47
2022-10-29T17:45:32.666Z,100879.78
2022-10-29T17:47:59.986Z,100885.53
2022-10-29T17:50:27.118Z,100875.81
2022-10-29T17:52:54.647Z,100874.22
2022-10-29T17:55:21.702Z,100873.53
2022-10-29T17:57:48.429Z,100879.44
2022-10-29T18:00:15.555Z,100879.03
2022-10-29T18:02:42.516Z,100867.88
2022-10-29T18:05:09.459Z,100860.03
2022-10-29T18:07:36.189Z,100869.19
2022-10-29T18:10:03.296Z,100863.06
2022-10-29T18:12:30.536Z,100857.66
2022-10-29T18:14:57.215Z,100853.91
2022-10-29T18:17:24.821Z,100858.00
2022-10-29T18:19:51.534Z,100856.13
2022-10-29T18:22:18.243Z,100869.50
2022-10-29T18:24:45.210Z,100868.72
2022-10-29T18:27:11.908Z,100863.88
2022-10-29T18:29:39.057Z,100860.25
2022-10-29T18:32:05.662Z,100874.13
2022-10-29T18:34:34.074Z,100873.97
2022-10-29T18:37:01.010Z,100854.19
2022-10-29T18:39:27.626Z,100872.81
2022-10-29T18:41:54.685Z,100870.09
2022-10-29T18:44:21.197Z,100874.22
2022-10-29T18:46:47.720Z,100871.53
2022-10-29T18:49:14.624Z,100871.56
2022-10-29T18:51:41.302Z,100876.56
2022-10-29T18:54:10.735Z,100871.63
2022-10-29T18:56:37.765Z,100867.81
2022-10-29T18:59:04.820Z,100862.25
2022-10-29T19:01:33.447Z,100861.25
2022-10-29T19:04:02.594Z,100861.13
2022-10-29T19:06:31.279Z,100870.56
2022-10-29T19:09:00.839Z,100877.25
2022-10-29T19:11:27.901Z,100872.66
2022-10-29T19:14:00.027Z,100875.47
2022-10-29T19:16:29.501Z,100872.09
2022-10-29T19:19:01.087Z,100872.38
2022-10-29T19:21:28.009Z,100874.19
2022-10-29T19:23:58.859Z,100869.56
2022-10-29T19:26:27.830Z,100855.69
2022-10-29T19:28:54.464Z,100840.66
2022-10-29T19:31:26.515Z,100845.84
2022-10-29T19:33:58.355Z,100846.09
2022-10-29T19:36:26.415Z,100849.97
2022-10-29T19:38:53.141Z,100850.94
2022-10-29T19:41:20.008Z,100848.84
2022-10-29T19:43:46.890Z,100848.44
2022-10-29T19:46:17.367Z,100847.97
2022-10-29T19:48:49.505Z,100848.38
2022-10-29T19:51:16.150Z,100846.38
2022-10-29T19:53:42.942Z,100844.06
2022-10-29T19:56:15.343Z,100838.63
2022-10-29T19:58:42.335Z,100840.91
2022-10-29T20:01:12.317Z,100836.97
2022-10-29T20:03:39.068Z,100831.69
2022-10-29T20:06:09.003Z,100838.88
2022-10-29T20:08:36.694Z,100841.78
2022-10-29T20:11:04.254Z,100835.28
2022-10-29T20:13:31.132Z,100839.53
2022-10-29T20:15:58.194Z,100837.16
2022-10-29T20:18:25.982Z,100844.59
2022-10-29T20:20:58.472Z,100844.84
2022-10-29T20:23:27.737Z,100845.44
2022-10-29T20:25:54.266Z,100832.78
2022-10-29T20:28:20.939Z,100832.63
2022-10-29T20:30:47.574Z,100828.31
2022-10-29T20:33:14.120Z,100834.38
2022-10-29T20:35:40.932Z,100826.94
2022-10-29T20:38:07.648Z,100825.00
2022-10-29T20:40:34.571Z,100816.28
2022-10-29T20:43:01.188Z,100814.63
2022-10-29T20:45:27.819Z,100815.81
2022-10-29T20:47:54.643Z,100819.88
2022-10-29T20:50:21.706Z,100828.00
2022-10-29T20:52:50.390Z,100825.16
2022-10-29T20:55:16.997Z,100829.13
2022-10-29T20:57:43.836Z,100823.13
2022-10-29T21:00:10.850Z,100823.34
2022-10-29T21:02:37.555Z,100826.81
2022-10-29T21:05:04.629Z,100828.28
2022-10-29T21:07:31.228Z,100830.63
2022-10-29T21:09:57.744Z,100818.66
2022-10-29T21:12:24.418Z,100826.00
2022-10-29T21:14:51.002Z,100815.09
2022-10-29T21:17:17.532Z,100815.69
2022-10-29T21:19:44.124Z,100816.59
2022-10-29T21:22:11.220Z,100814.41
2022-10-29T21:24:39.295Z,100809.50
2022-10-29T21:27:09.911Z,100814.34
2022-10-29T21:29:36.604Z,100811.66
2022-10-29T21:32:03.981Z,100806.59
2022-10-29T21:34:30.534Z,100804.75
2022-10-29T21:36:57.180Z,100802.44
2022-10-29T21:39:23.714Z,100798.25
2022-10-29T21:41:50.627Z,100802.34
2022-10-29T21:44:17.851Z,100800.94
2022-10-29T21:46:44.425Z,100796.41
2022-10-29T21:49:10.950Z,100795.88
2022-10-29T21:51:37.617Z,100797.81
2022-10-29T21:54:04.329Z,100792.75
2022-10-29T21:56:30.888Z,100789.81
2022-10-29T21:58:57.441Z,100789.03
2022-10-29T22:01:24.417Z,100781.81
2022-10-29T22:03:51.595Z,100781.63
2022-10-29T22:06:21.239Z,100763.44
2022-10-29T22:08:52.219Z,100759.13
2022-10-29T22:11:19.051Z,100757.41
2022-10-29T22:13:45.636Z,100755.75
2022-10-29T22:16:12.717Z,100757.03
2022-10-29T22:18:39.668Z,100754.28
2022-10-29T22:21:16.943Z,100755.97
2022-10-29T22:23:46.840Z,100752.63
2022-10-29T22:26:15.515Z,100760.56
2022-10-29T22:28:43.168Z,100755.34
2022-10-29T22:31:10.145Z,100765.34
2022-10-29T22:33:36.761Z,100758.88
2022-10-29T22:36:11.015Z,100761.53
2022-10-29T22:38:37.844Z,100756.63
2022-10-29T22:41:09.897Z,100756.13
2022-10-29T22:43:37.385Z,100756.56
2022-10-29T22:46:05.579Z,100750.25
2022-10-29T22:48:32.469Z,100753.50
2022-10-29T22:51:20.138Z,100749.75
2022-10-29T22:53:47.003Z,100760.38
2022-10-29T22:56:14.798Z,100754.41
2022-10-29T22:58:42.038Z,100749.66
2022-10-29T23:01:11.145Z,100742.38
2022-10-29T23:03:39.083Z,100741.34
2022-10-29T23:06:08.599Z,100742.78
2022-10-29T23:08:35.501Z,100730.25
2022-10-29T23:11:12.564Z,100731.09
2022-10-29T23:13:39.178Z,100722.13
2022-10-29T23:16:06.341Z,100723.94
2022-10-29T23:18:32.923Z,100724.78
2022-10-29T23:21:05.060Z,100727.69
2022-10-29T23:23:32.496Z,100737.38
2022-10-29T23:26:02.223Z,100744.06
2022-10-29T23:28:33.536Z,100751.13
2022-10-29T23:31:02.789Z,100754.03
2022-10-29T23:33:30.967Z,100761.50
2022-10-29T23:36:05.061Z,100761.47
2022-10-29T23:38:32.094Z,100764.34
2022-10-29T23:40:58.925Z,100774.19
2022-10-29T23:43:25.614Z,100784.44
2022-10-29T23:45:53.229Z,100789.91
2022-10-29T23:48:20.417Z,100793.06
2022-10-29T23:50:46.998Z,100788.09
2022-10-29T23:53:14.105Z,100778.09
2022-10-29T23:55:42.489Z,100771.81
2022-10-29T23:58:10.015Z,100767.19
